sensor_id;sensor_type;location;lat;lon;timestamp;temperature;humidity
42227;DHT22;27892;52.378;13.122;2023-11-22T00:01:06;4.30;67.00
42227;DHT22;27892;52.378;13.122;2023-11-22T00:03:32;4.30;67.10
42227;DHT22;27892;52.378;13.122;2023-11-22T00:05:58;4.30;66.90
42227;DHT22;27892;52.378;13.122;2023-11-22T00:08:24;4.30;66.70
42227;DHT22;27892;52.378;13.122;2023-11-22T00:10:49;4.30;67.00
42227;DHT22;27892;52.378;13.122;2023-11-22T00:13:15;4.40;67.30
42227;DHT22;27892;52.378;13.122;2023-11-22T00:15:41;4.30;67.00
42227;DHT22;27892;52.378;13.122;2023-11-22T00:18:06;4.30;66.90
42227;DHT22;27892;52.378;13.122;2023-11-22T00:20:32;4.20;66.70
42227;DHT22;27892;52.378;13.122;2023-11-22T00:22:59;4.30;66.90
42227;DHT22;27892;52.378;13.122;2023-11-22T00:25:27;4.20;67.00
42227;DHT22;27892;52.378;13.122;2023-11-22T00:27:53;4.10;66.90
42227;DHT22;27892;52.378;13.122;2023-11-22T00:30:18;4.10;66.80
42227;DHT22;27892;52.378;13.122;2023-11-22T00:32:44;4.00;66.90
42227;DHT22;27892;52.378;13.122;2023-11-22T00:35:10;4.00;67.00
42227;DHT22;27892;52.378;13.122;2023-11-22T00:37:35;4.00;67.00
42227;DHT22;27892;52.378;13.122;2023-11-22T00:40:02;4.10;67.30
42227;DHT22;27892;52.378;13.122;2023-11-22T00:42:37;4.10;67.50
42227;DHT22;27892;52.378;13.122;2023-11-22T00:45:04;4.10;67.40
42227;DHT22;27892;52.378;13.122;2023-11-22T00:47:34;4.20;67.50
42227;DHT22;27892;52.378;13.122;2023-11-22T00:50:00;4.20;67.30
42227;DHT22;27892;52.378;13.122;2023-11-22T00:52:26;4.20;67.10
42227;DHT22;27892;52.378;13.122;2023-11-22T00:54:53;4.20;67.20
42227;DHT22;27892;52.378;13.122;2023-11-22T00:57:19;4.30;67.40
42227;DHT22;27892;52.378;13.122;2023-11-22T00:59:45;4.30;67.20
42227;DHT22;27892;52.378;13.122;2023-11-22T01:02:10;4.30;67.10
42227;DHT22;27892;52.378;13.122;2023-11-22T01:04:36;4.30;66.90
42227;DHT22;27892;52.378;13.122;2023-11-22T01:07:05;4.30;67.00
42227;DHT22;27892;52.378;13.122;2023-11-22T01:09:32;4.30;66.80
42227;DHT22;27892;52.378;13.122;2023-11-22T01:11:58;4.20;66.70
42227;DHT22;27892;52.378;13.122;2023-11-22T01:14:24;4.20;66.60
42227;DHT22;27892;52.378;13.122;2023-11-22T01:16:51;4.20;66.30
42227;DHT22;27892;52.378;13.122;2023-11-22T01:19:17;4.10;66.60
42227;DHT22;27892;52.378;13.122;2023-11-22T01:21:43;4.10;66.50
42227;DHT22;27892;52.378;13.122;2023-11-22T01:24:09;4.20;66.40
42227;DHT22;27892;52.378;13.122;2023-11-22T01:26:35;4.10;66.50
42227;DHT22;27892;52.378;13.122;2023-11-22T01:29:00;4.10;66.40
42227;DHT22;27892;52.378;13.122;2023-11-22T01:31:28;4.10;66.20
42227;DHT22;27892;52.378;13.122;2023-11-22T01:33:54;4.00;66.20
42227;DHT22;27892;52.378;13.122;2023-11-22T01:36:20;4.00;66.10
42227;DHT22;27892;52.378;13.122;2023-11-22T01:38:48;4.00;66.20
42227;DHT22;27892;52.378;13.122;2023-11-22T01:41:14;4.00;66.30
42227;DHT22;27892;52.378;13.122;2023-11-22T01:43:40;4.00;66.00
42227;DHT22;27892;52.378;13.122;2023-11-22T01:46:07;3.90;65.90
42227;DHT22;27892;52.378;13.122;2023-11-22T01:48:34;3.90;65.90
42227;DHT22;27892;52.378;13.122;2023-11-22T01:51:03;3.80;65.70
42227;DHT22;27892;52.378;13.122;2023-11-22T01:53:29;3.80;65.90
42227;DHT22;27892;52.378;13.122;2023-11-22T01:55:57;3.80;66.00
42227;DHT22;27892;52.378;13.122;2023-11-22T01:58:22;3.80;65.60
42227;DHT22;27892;52.378;13.122;2023-11-22T02:00:49;3.70;65.50
42227;DHT22;27892;52.378;13.122;2023-11-22T02:03:16;3.70;65.50
42227;DHT22;27892;52.378;13.122;2023-11-22T02:05:42;3.70;65.80
42227;DHT22;27892;52.378;13.122;2023-11-22T02:08:11;3.70;65.80
42227;DHT22;27892;52.378;13.122;2023-11-22T02:10:38;3.70;65.70
42227;DHT22;27892;52.378;13.122;2023-11-22T02:13:07;3.70;65.90
42227;DHT22;27892;52.378;13.122;2023-11-22T02:15:37;3.60;65.50
42227;DHT22;27892;52.378;13.122;2023-11-22T02:18:03;3.60;65.40
42227;DHT22;27892;52.378;13.122;2023-11-22T02:20:31;3.50;65.40
42227;DHT22;27892;52.378;13.122;2023-11-22T02:22:57;3.50;65.50
42227;DHT22;27892;52.378;13.122;2023-11-22T02:25:23;3.50;65.30
42227;DHT22;27892;52.378;13.122;2023-11-22T02:27:49;3.50;65.40
42227;DHT22;27892;52.378;13.122;2023-11-22T02:30:14;3.50;65.40
42227;DHT22;27892;52.378;13.122;2023-11-22T02:32:41;3.50;65.00
42227;DHT22;27892;52.378;13.122;2023-11-22T02:35:08;3.50;64.90
42227;DHT22;27892;52.378;13.122;2023-11-22T02:37:34;3.50;65.00
42227;DHT22;27892;52.378;13.122;2023-11-22T02:42:34;3.40;65.00
42227;DHT22;27892;52.378;13.122;2023-11-22T02:44:59;3.40;64.80
42227;DHT22;27892;52.378;13.122;2023-11-22T02:47:25;3.40;64.80
42227;DHT22;27892;52.378;13.122;2023-11-22T02:49:51;3.30;64.50
42227;DHT22;27892;52.378;13.122;2023-11-22T02:52:17;3.30;64.70
42227;DHT22;27892;52.378;13.122;2023-11-22T02:54:43;3.30;64.60
42227;DHT22;27892;52.378;13.122;2023-11-22T02:57:11;3.20;64.50
42227;DHT22;27892;52.378;13.122;2023-11-22T02:59:37;3.20;64.90
42227;DHT22;27892;52.378;13.122;2023-11-22T03:02:02;3.30;64.90
42227;DHT22;27892;52.378;13.122;2023-11-22T03:04:28;3.20;64.70
42227;DHT22;27892;52.378;13.122;2023-11-22T03:06:54;3.20;64.40
42227;DHT22;27892;52.378;13.122;2023-11-22T03:09:20;3.20;64.40
42227;DHT22;27892;52.378;13.122;2023-11-22T03:11:49;3.20;64.10
42227;DHT22;27892;52.378;13.122;2023-11-22T03:14:14;3.20;64.20
42227;DHT22;27892;52.378;13.122;2023-11-22T03:16:41;3.20;63.70
42227;DHT22;27892;52.378;13.122;2023-11-22T03:19:08;3.10;63.20
42227;DHT22;27892;52.378;13.122;2023-11-22T03:21:34;3.20;63.00
42227;DHT22;27892;52.378;13.122;2023-11-22T03:24:01;3.20;62.70
42227;DHT22;27892;52.378;13.122;2023-11-22T03:26:29;3.20;62.70
42227;DHT22;27892;52.378;13.122;2023-11-22T03:28:55;3.10;61.80
42227;DHT22;27892;52.378;13.122;2023-11-22T03:31:21;3.10;61.30
42227;DHT22;27892;52.378;13.122;2023-11-22T03:33:47;3.20;61.20
42227;DHT22;27892;52.378;13.122;2023-11-22T03:36:13;3.20;60.60
42227;DHT22;27892;52.378;13.122;2023-11-22T03:38:41;3.10;60.50
42227;DHT22;27892;52.378;13.122;2023-11-22T03:41:07;3.10;60.50
42227;DHT22;27892;52.378;13.122;2023-11-22T03:43:32;3.10;60.20
42227;DHT22;27892;52.378;13.122;2023-11-22T03:45:58;3.10;59.80
42227;DHT22;27892;52.378;13.122;2023-11-22T03:48:24;3.10;59.70
42227;DHT22;27892;52.378;13.122;2023-11-22T03:50:51;3.10;59.50
42227;DHT22;27892;52.378;13.122;2023-11-22T03:53:17;3.10;59.00
42227;DHT22;27892;52.378;13.122;2023-11-22T03:55:43;3.00;57.90
42227;DHT22;27892;52.378;13.122;2023-11-22T03:58:08;3.00;57.70
42227;DHT22;27892;52.378;13.122;2023-11-22T04:00:34;3.00;57.80
42227;DHT22;27892;52.378;13.122;2023-11-22T04:03:00;3.10;58.00
42227;DHT22;27892;52.378;13.122;2023-11-22T04:05:27;3.00;57.50
42227;DHT22;27892;52.378;13.122;2023-11-22T04:07:53;3.10;57.70
42227;DHT22;27892;52.378;13.122;2023-11-22T04:10:20;3.10;57.90
42227;DHT22;27892;52.378;13.122;2023-11-22T04:12:47;3.10;57.80
42227;DHT22;27892;52.378;13.122;2023-11-22T04:15:13;3.10;57.90
42227;DHT22;27892;52.378;13.122;2023-11-22T04:17:42;3.00;57.50
42227;DHT22;27892;52.378;13.122;2023-11-22T04:20:09;2.90;57.50
42227;DHT22;27892;52.378;13.122;2023-11-22T04:22:40;2.90;57.80
42227;DHT22;27892;52.378;13.122;2023-11-22T04:25:06;2.80;58.60
42227;DHT22;27892;52.378;13.122;2023-11-22T04:27:34;2.80;57.80
42227;DHT22;27892;52.378;13.122;2023-11-22T04:29:59;2.70;57.70
42227;DHT22;27892;52.378;13.122;2023-11-22T04:32:25;2.70;57.60
42227;DHT22;27892;52.378;13.122;2023-11-22T04:34:51;2.60;58.00
42227;DHT22;27892;52.378;13.122;2023-11-22T04:37:17;2.60;58.40
42227;DHT22;27892;52.378;13.122;2023-11-22T04:39:43;2.60;58.40
42227;DHT22;27892;52.378;13.122;2023-11-22T04:42:08;2.50;58.50
42227;DHT22;27892;52.378;13.122;2023-11-22T04:44:34;2.50;59.00
42227;DHT22;27892;52.378;13.122;2023-11-22T04:47:00;2.50;59.20
42227;DHT22;27892;52.378;13.122;2023-11-22T04:49:26;2.50;59.50
42227;DHT22;27892;52.378;13.122;2023-11-22T04:51:52;2.50;59.00
42227;DHT22;27892;52.378;13.122;2023-11-22T04:54:18;2.40;59.20
42227;DHT22;27892;52.378;13.122;2023-11-22T04:56:44;2.40;59.40
42227;DHT22;27892;52.378;13.122;2023-11-22T04:59:10;2.40;59.40
42227;DHT22;27892;52.378;13.122;2023-11-22T05:01:36;2.30;59.10
42227;DHT22;27892;52.378;13.122;2023-11-22T05:04:01;2.30;59.40
42227;DHT22;27892;52.378;13.122;2023-11-22T05:06:27;2.30;59.20
42227;DHT22;27892;52.378;13.122;2023-11-22T05:08:54;2.20;59.40
42227;DHT22;27892;52.378;13.122;2023-11-22T05:11:21;2.20;59.70
42227;DHT22;27892;52.378;13.122;2023-11-22T05:13:47;2.20;60.10
42227;DHT22;27892;52.378;13.122;2023-11-22T05:16:12;2.20;60.50
42227;DHT22;27892;52.378;13.122;2023-11-22T05:18:38;2.20;60.70
42227;DHT22;27892;52.378;13.122;2023-11-22T05:21:04;2.20;60.20
42227;DHT22;27892;52.378;13.122;2023-11-22T05:23:31;2.20;60.40
42227;DHT22;27892;52.378;13.122;2023-11-22T05:25:58;2.10;60.40
42227;DHT22;27892;52.378;13.122;2023-11-22T05:28:25;2.10;60.70
42227;DHT22;27892;52.378;13.122;2023-11-22T05:30:51;2.00;60.90
42227;DHT22;27892;52.378;13.122;2023-11-22T05:33:16;2.10;61.40
42227;DHT22;27892;52.378;13.122;2023-11-22T05:35:42;2.10;61.60
42227;DHT22;27892;52.378;13.122;2023-11-22T05:38:08;2.10;61.70
42227;DHT22;27892;52.378;13.122;2023-11-22T05:40:34;2.10;61.80
42227;DHT22;27892;52.378;13.122;2023-11-22T05:43:00;2.10;61.60
42227;DHT22;27892;52.378;13.122;2023-11-22T05:45:25;2.10;61.60
42227;DHT22;27892;52.378;13.122;2023-11-22T05:47:51;2.00;61.60
42227;DHT22;27892;52.378;13.122;2023-11-22T05:50:17;1.90;61.30
42227;DHT22;27892;52.378;13.122;2023-11-22T05:52:43;1.90;61.70
42227;DHT22;27892;52.378;13.122;2023-11-22T05:55:10;1.90;62.00
42227;DHT22;27892;52.378;13.122;2023-11-22T05:57:42;1.90;61.70
42227;DHT22;27892;52.378;13.122;2023-11-22T06:00:08;1.90;62.00
42227;DHT22;27892;52.378;13.122;2023-11-22T06:02:34;1.90;62.00
42227;DHT22;27892;52.378;13.122;2023-11-22T06:05:00;1.90;62.10
42227;DHT22;27892;52.378;13.122;2023-11-22T06:07:26;1.90;62.00
42227;DHT22;27892;52.378;13.122;2023-11-22T06:09:52;1.90;62.00
42227;DHT22;27892;52.378;13.122;2023-11-22T06:12:18;1.90;62.10
42227;DHT22;27892;52.378;13.122;2023-11-22T06:14:46;1.80;62.20
42227;DHT22;27892;52.378;13.122;2023-11-22T06:17:12;1.80;62.30
42227;DHT22;27892;52.378;13.122;2023-11-22T06:19:38;1.80;62.30
42227;DHT22;27892;52.378;13.122;2023-11-22T06:22:04;1.90;63.40
42227;DHT22;27892;52.378;13.122;2023-11-22T06:24:29;1.90;62.50
42227;DHT22;27892;52.378;13.122;2023-11-22T06:26:56;1.80;62.00
42227;DHT22;27892;52.378;13.122;2023-11-22T06:29:22;1.80;62.20
42227;DHT22;27892;52.378;13.122;2023-11-22T06:31:48;1.80;62.60
42227;DHT22;27892;52.378;13.122;2023-11-22T06:34:13;1.80;63.00
42227;DHT22;27892;52.378;13.122;2023-11-22T06:36:39;1.80;62.80
42227;DHT22;27892;52.378;13.122;2023-11-22T06:39:05;1.80;62.50
42227;DHT22;27892;52.378;13.122;2023-11-22T06:41:31;1.70;62.10
42227;DHT22;27892;52.378;13.122;2023-11-22T06:43:57;1.70;62.50
42227;DHT22;27892;52.378;13.122;2023-11-22T06:46:23;1.70;62.50
42227;DHT22;27892;52.378;13.122;2023-11-22T06:48:49;1.70;62.30
42227;DHT22;27892;52.378;13.122;2023-11-22T06:51:15;1.70;62.80
42227;DHT22;27892;52.378;13.122;2023-11-22T06:53:41;1.70;62.60
42227;DHT22;27892;52.378;13.122;2023-11-22T06:56:07;1.70;62.30
42227;DHT22;27892;52.378;13.122;2023-11-22T06:58:32;1.60;62.30
42227;DHT22;27892;52.378;13.122;2023-11-22T07:00:58;1.70;62.50
42227;DHT22;27892;52.378;13.122;2023-11-22T07:03:23;1.70;63.20
42227;DHT22;27892;52.378;13.122;2023-11-22T07:05:49;1.70;62.80
42227;DHT22;27892;52.378;13.122;2023-11-22T07:08:15;1.70;62.50
42227;DHT22;27892;52.378;13.122;2023-11-22T07:10:44;1.70;62.80
42227;DHT22;27892;52.378;13.122;2023-11-22T07:13:11;1.80;63.20
42227;DHT22;27892;52.378;13.122;2023-11-22T07:15:38;1.80;63.40
42227;DHT22;27892;52.378;13.122;2023-11-22T07:18:04;1.90;63.40
42227;DHT22;27892;52.378;13.122;2023-11-22T07:20:30;1.90;63.30
42227;DHT22;27892;52.378;13.122;2023-11-22T07:22:56;2.00;63.20
42227;DHT22;27892;52.378;13.122;2023-11-22T07:25:26;2.00;63.00
42227;DHT22;27892;52.378;13.122;2023-11-22T07:27:52;2.00;62.90
42227;DHT22;27892;52.378;13.122;2023-11-22T07:30:21;2.00;62.60
42227;DHT22;27892;52.378;13.122;2023-11-22T07:32:50;2.00;63.00
42227;DHT22;27892;52.378;13.122;2023-11-22T07:35:17;2.10;63.60
42227;DHT22;27892;52.378;13.122;2023-11-22T07:37:46;2.10;63.40
42227;DHT22;27892;52.378;13.122;2023-11-22T07:40:13;2.20;63.70
42227;DHT22;27892;52.378;13.122;2023-11-22T07:42:40;2.30;63.90
42227;DHT22;27892;52.378;13.122;2023-11-22T07:45:06;2.30;63.80
42227;DHT22;27892;52.378;13.122;2023-11-22T07:47:32;2.40;64.00
42227;DHT22;27892;52.378;13.122;2023-11-22T07:49:58;2.40;64.00
42227;DHT22;27892;52.378;13.122;2023-11-22T07:52:24;2.50;64.00
42227;DHT22;27892;52.378;13.122;2023-11-22T07:54:58;2.60;63.70
42227;DHT22;27892;52.378;13.122;2023-11-22T07:57:25;2.70;63.70
42227;DHT22;27892;52.378;13.122;2023-11-22T07:59:51;2.80;63.90
42227;DHT22;27892;52.378;13.122;2023-11-22T08:02:20;2.90;63.80
42227;DHT22;27892;52.378;13.122;2023-11-22T08:04:46;3.00;63.70
42227;DHT22;27892;52.378;13.122;2023-11-22T08:07:14;3.10;63.30
42227;DHT22;27892;52.378;13.122;2023-11-22T08:09:40;3.10;62.90
42227;DHT22;27892;52.378;13.122;2023-11-22T08:12:07;3.20;63.20
42227;DHT22;27892;52.378;13.122;2023-11-22T08:14:33;3.20;63.10
42227;DHT22;27892;52.378;13.122;2023-11-22T08:16:59;3.40;63.20
42227;DHT22;27892;52.378;13.122;2023-11-22T08:19:24;3.40;63.20
42227;DHT22;27892;52.378;13.122;2023-11-22T08:21:50;3.50;63.00
42227;DHT22;27892;52.378;13.122;2023-11-22T08:24:16;3.70;63.20
42227;DHT22;27892;52.378;13.122;2023-11-22T08:26:44;3.70;63.10
42227;DHT22;27892;52.378;13.122;2023-11-22T08:29:10;3.80;62.70
42227;DHT22;27892;52.378;13.122;2023-11-22T08:31:37;3.90;62.50
42227;DHT22;27892;52.378;13.122;2023-11-22T08:34:03;4.00;62.30
42227;DHT22;27892;52.378;13.122;2023-11-22T08:36:33;4.00;61.60
42227;DHT22;27892;52.378;13.122;2023-11-22T08:39:02;4.10;60.80
42227;DHT22;27892;52.378;13.122;2023-11-22T08:41:29;4.00;59.70
42227;DHT22;27892;52.378;13.122;2023-11-22T08:43:56;4.50;60.80
42227;DHT22;27892;52.378;13.122;2023-11-22T08:46:22;5.20;56.50
42227;DHT22;27892;52.378;13.122;2023-11-22T08:48:52;5.40;55.60
42227;DHT22;27892;52.378;13.122;2023-11-22T08:51:18;5.00;54.10
42227;DHT22;27892;52.378;13.122;2023-11-22T08:53:44;4.90;54.40
42227;DHT22;27892;52.378;13.122;2023-11-22T08:56:10;4.90;53.90
42227;DHT22;27892;52.378;13.122;2023-11-22T08:58:37;4.90;54.40
42227;DHT22;27892;52.378;13.122;2023-11-22T09:01:04;4.90;55.00
42227;DHT22;27892;52.378;13.122;2023-11-22T09:03:31;4.90;55.20
42227;DHT22;27892;52.378;13.122;2023-11-22T09:05:58;4.90;55.30
42227;DHT22;27892;52.378;13.122;2023-11-22T09:08:23;4.90;55.60
42227;DHT22;27892;52.378;13.122;2023-11-22T09:10:49;4.90;55.70
42227;DHT22;27892;52.378;13.122;2023-11-22T09:13:16;4.90;55.60
42227;DHT22;27892;52.378;13.122;2023-11-22T09:15:45;4.90;55.50
42227;DHT22;27892;52.378;13.122;2023-11-22T09:18:11;4.80;55.70
42227;DHT22;27892;52.378;13.122;2023-11-22T09:20:39;4.80;55.80
42227;DHT22;27892;52.378;13.122;2023-11-22T09:23:09;4.80;55.90
42227;DHT22;27892;52.378;13.122;2023-11-22T09:25:35;4.80;55.60
42227;DHT22;27892;52.378;13.122;2023-11-22T09:28:01;4.90;55.60
42227;DHT22;27892;52.378;13.122;2023-11-22T09:30:31;4.80;52.90
42227;DHT22;27892;52.378;13.122;2023-11-22T09:33:14;4.70;52.60
42227;DHT22;27892;52.378;13.122;2023-11-22T09:35:41;4.90;53.40
42227;DHT22;27892;52.378;13.122;2023-11-22T09:38:09;5.20;53.50
42227;DHT22;27892;52.378;13.122;2023-11-22T09:40:44;5.50;53.60
42227;DHT22;27892;52.378;13.122;2023-11-22T09:43:11;5.80;51.10
42227;DHT22;27892;52.378;13.122;2023-11-22T09:45:37;5.70;48.50
42227;DHT22;27892;52.378;13.122;2023-11-22T09:48:12;5.80;49.80
42227;DHT22;27892;52.378;13.122;2023-11-22T09:50:49;6.50;48.40
42227;DHT22;27892;52.378;13.122;2023-11-22T09:53:25;7.40;48.10
42227;DHT22;27892;52.378;13.122;2023-11-22T09:55:51;7.40;44.60
42227;DHT22;27892;52.378;13.122;2023-11-22T09:58:20;8.00;45.80
42227;DHT22;27892;52.378;13.122;2023-11-22T10:00:47;7.90;43.90
42227;DHT22;27892;52.378;13.122;2023-11-22T10:03:13;7.90;44.50
42227;DHT22;27892;52.378;13.122;2023-11-22T10:05:42;8.20;46.20
42227;DHT22;27892;52.378;13.122;2023-11-22T10:08:07;8.40;45.60
42227;DHT22;27892;52.378;13.122;2023-11-22T10:10:36;8.40;43.50
42227;DHT22;27892;52.378;13.122;2023-11-22T10:13:03;8.60;43.90
42227;DHT22;27892;52.378;13.122;2023-11-22T10:15:29;8.60;42.80
42227;DHT22;27892;52.378;13.122;2023-11-22T10:17:56;8.70;43.20
42227;DHT22;27892;52.378;13.122;2023-11-22T10:20:38;8.70;41.70
42227;DHT22;27892;52.378;13.122;2023-11-22T10:23:15;8.50;41.60
42227;DHT22;27892;52.378;13.122;2023-11-22T10:25:52;7.60;41.40
42227;DHT22;27892;52.378;13.122;2023-11-22T10:28:19;7.60;43.30
42227;DHT22;27892;52.378;13.122;2023-11-22T10:30:49;7.70;43.20
42227;DHT22;27892;52.378;13.122;2023-11-22T10:33:18;7.50;42.20
42227;DHT22;27892;52.378;13.122;2023-11-22T10:35:49;7.30;42.10
42227;DHT22;27892;52.378;13.122;2023-11-22T10:38:20;6.80;41.90
42227;DHT22;27892;52.378;13.122;2023-11-22T10:40:46;7.10;43.70
42227;DHT22;27892;52.378;13.122;2023-11-22T10:43:14;7.40;42.80
42227;DHT22;27892;52.378;13.122;2023-11-22T10:45:44;7.80;42.70
42227;DHT22;27892;52.378;13.122;2023-11-22T10:48:17;8.30;42.20
42227;DHT22;27892;52.378;13.122;2023-11-22T10:50:43;8.40;41.60
42227;DHT22;27892;52.378;13.122;2023-11-22T10:53:12;8.20;41.20
42227;DHT22;27892;52.378;13.122;2023-11-22T10:55:44;8.30;42.30
42227;DHT22;27892;52.378;13.122;2023-11-22T10:58:11;8.30;43.10
42227;DHT22;27892;52.378;13.122;2023-11-22T11:00:40;8.50;42.70
42227;DHT22;27892;52.378;13.122;2023-11-22T11:03:14;8.40;41.60
42227;DHT22;27892;52.378;13.122;2023-11-22T11:05:50;8.60;41.60
42227;DHT22;27892;52.378;13.122;2023-11-22T11:08:18;8.50;41.20
42227;DHT22;27892;52.378;13.122;2023-11-22T11:10:46;8.50;41.70
42227;DHT22;27892;52.378;13.122;2023-11-22T11:13:12;8.50;41.50
42227;DHT22;27892;52.378;13.122;2023-11-22T11:15:42;8.70;41.60
42227;DHT22;27892;52.378;13.122;2023-11-22T11:18:14;9.00;41.90
42227;DHT22;27892;52.378;13.122;2023-11-22T11:20:52;9.00;40.50
42227;DHT22;27892;52.378;13.122;2023-11-22T11:23:23;9.10;41.40
42227;DHT22;27892;52.378;13.122;2023-11-22T11:25:52;9.30;42.40
42227;DHT22;27892;52.378;13.122;2023-11-22T11:28:19;9.50;43.00
42227;DHT22;27892;52.378;13.122;2023-11-22T11:30:49;9.80;41.40
42227;DHT22;27892;52.378;13.122;2023-11-22T11:33:26;9.90;40.30
42227;DHT22;27892;52.378;13.122;2023-11-22T11:35:52;9.90;40.50
42227;DHT22;27892;52.378;13.122;2023-11-22T11:38:30;10.00;38.10
42227;DHT22;27892;52.378;13.122;2023-11-22T11:40:56;10.00;37.70
42227;DHT22;27892;52.378;13.122;2023-11-22T11:43:45;9.70;37.90
42227;DHT22;27892;52.378;13.122;2023-11-22T11:46:11;9.60;38.60
42227;DHT22;27892;52.378;13.122;2023-11-22T11:48:45;9.70;38.70
42227;DHT22;27892;52.378;13.122;2023-11-22T11:51:29;10.30;37.80
42227;DHT22;27892;52.378;13.122;2023-11-22T11:53:55;11.20;37.60
42227;DHT22;27892;52.378;13.122;2023-11-22T11:56:21;11.30;34.50
42227;DHT22;27892;52.378;13.122;2023-11-22T11:58:48;11.80;35.00
42227;DHT22;27892;52.378;13.122;2023-11-22T12:01:16;12.00;36.00
42227;DHT22;27892;52.378;13.122;2023-11-22T12:03:43;11.80;33.30
42227;DHT22;27892;52.378;13.122;2023-11-22T12:06:09;11.30;33.30
42227;DHT22;27892;52.378;13.122;2023-11-22T12:08:35;11.10;34.40
42227;DHT22;27892;52.378;13.122;2023-11-22T12:11:05;11.40;34.30
42227;DHT22;27892;52.378;13.122;2023-11-22T12:13:34;11.70;34.80
42227;DHT22;27892;52.378;13.122;2023-11-22T12:16:00;11.70;33.90
42227;DHT22;27892;52.378;13.122;2023-11-22T12:18:28;11.70;35.10
42227;DHT22;27892;52.378;13.122;2023-11-22T12:20:58;11.50;33.80
42227;DHT22;27892;52.378;13.122;2023-11-22T12:23:28;11.10;34.80
42227;DHT22;27892;52.378;13.122;2023-11-22T12:25:56;10.50;34.50
42227;DHT22;27892;52.378;13.122;2023-11-22T12:28:24;10.00;35.90
42227;DHT22;27892;52.378;13.122;2023-11-22T12:30:49;9.50;36.90
42227;DHT22;27892;52.378;13.122;2023-11-22T12:33:16;9.30;38.00
42227;DHT22;27892;52.378;13.122;2023-11-22T12:35:43;9.10;38.60
42227;DHT22;27892;52.378;13.122;2023-11-22T12:38:10;9.10;39.00
42227;DHT22;27892;52.378;13.122;2023-11-22T12:40:36;8.80;38.80
42227;DHT22;27892;52.378;13.122;2023-11-22T12:43:02;8.70;39.10
42227;DHT22;27892;52.378;13.122;2023-11-22T12:45:30;8.50;39.10
42227;DHT22;27892;52.378;13.122;2023-11-22T12:47:57;8.40;40.20
42227;DHT22;27892;52.378;13.122;2023-11-22T12:50:38;8.40;40.50
42227;DHT22;27892;52.378;13.122;2023-11-22T12:53:08;8.40;41.80
42227;DHT22;27892;52.378;13.122;2023-11-22T12:55:45;8.40;42.50
42227;DHT22;27892;52.378;13.122;2023-11-22T12:58:12;8.30;41.60
42227;DHT22;27892;52.378;13.122;2023-11-22T13:00:41;8.20;41.50
42227;DHT22;27892;52.378;13.122;2023-11-22T13:03:09;8.10;40.90
42227;DHT22;27892;52.378;13.122;2023-11-22T13:05:42;8.00;42.10
42227;DHT22;27892;52.378;13.122;2023-11-22T13:08:12;7.80;42.50
42227;DHT22;27892;52.378;13.122;2023-11-22T13:10:49;7.70;42.20
42227;DHT22;27892;52.378;13.122;2023-11-22T13:13:25;7.70;42.90
42227;DHT22;27892;52.378;13.122;2023-11-22T13:15:52;7.50;42.70
42227;DHT22;27892;52.378;13.122;2023-11-22T13:18:18;7.40;42.80
42227;DHT22;27892;52.378;13.122;2023-11-22T13:20:45;7.40;42.70
42227;DHT22;27892;52.378;13.122;2023-11-22T13:23:11;7.20;42.90
42227;DHT22;27892;52.378;13.122;2023-11-22T13:25:40;7.10;43.60
42227;DHT22;27892;52.378;13.122;2023-11-22T13:28:09;7.10;43.90
42227;DHT22;27892;52.378;13.122;2023-11-22T13:30:35;7.10;44.10
42227;DHT22;27892;52.378;13.122;2023-11-22T13:33:01;7.00;44.20
42227;DHT22;27892;52.378;13.122;2023-11-22T13:35:29;6.90;43.90
42227;DHT22;27892;52.378;13.122;2023-11-22T13:38:03;6.90;44.30
42227;DHT22;27892;52.378;13.122;2023-11-22T13:40:32;6.90;44.40
42227;DHT22;27892;52.378;13.122;2023-11-22T13:42:59;6.90;44.80
42227;DHT22;27892;52.378;13.122;2023-11-22T13:45:25;6.90;45.00
42227;DHT22;27892;52.378;13.122;2023-11-22T13:47:52;6.90;44.80
42227;DHT22;27892;52.378;13.122;2023-11-22T13:50:23;6.80;45.00
42227;DHT22;27892;52.378;13.122;2023-11-22T13:52:49;6.70;45.20
42227;DHT22;27892;52.378;13.122;2023-11-22T13:55:15;6.60;45.60
42227;DHT22;27892;52.378;13.122;2023-11-22T13:57:43;6.60;45.50
42227;DHT22;27892;52.378;13.122;2023-11-22T14:00:10;6.60;45.30
42227;DHT22;27892;52.378;13.122;2023-11-22T14:02:45;6.60;45.30
42227;DHT22;27892;52.378;13.122;2023-11-22T14:05:11;6.60;45.50
42227;DHT22;27892;52.378;13.122;2023-11-22T14:07:37;6.50;45.60
42227;DHT22;27892;52.378;13.122;2023-11-22T14:10:05;6.50;45.90
42227;DHT22;27892;52.378;13.122;2023-11-22T14:12:32;6.40;46.30
42227;DHT22;27892;52.378;13.122;2023-11-22T14:14:59;6.20;46.50
42227;DHT22;27892;52.378;13.122;2023-11-22T14:17:25;6.10;46.80
42227;DHT22;27892;52.378;13.122;2023-11-22T14:19:52;6.10;47.50
42227;DHT22;27892;52.378;13.122;2023-11-22T14:22:19;6.10;47.00
42227;DHT22;27892;52.378;13.122;2023-11-22T14:24:46;6.10;46.70
42227;DHT22;27892;52.378;13.122;2023-11-22T14:27:12;6.10;47.00
42227;DHT22;27892;52.378;13.122;2023-11-22T14:29:38;6.00;47.50
42227;DHT22;27892;52.378;13.122;2023-11-22T14:32:04;6.00;47.50
42227;DHT22;27892;52.378;13.122;2023-11-22T14:34:30;6.00;47.30
42227;DHT22;27892;52.378;13.122;2023-11-22T14:36:56;6.00;47.70
42227;DHT22;27892;52.378;13.122;2023-11-22T14:39:22;5.90;48.40
42227;DHT22;27892;52.378;13.122;2023-11-22T14:41:47;5.90;49.30
42227;DHT22;27892;52.378;13.122;2023-11-22T14:44:13;5.80;49.50
42227;DHT22;27892;52.378;13.122;2023-11-22T14:46:39;5.70;50.00
42227;DHT22;27892;52.378;13.122;2023-11-22T14:49:05;5.70;49.60
42227;DHT22;27892;52.378;13.122;2023-11-22T14:51:34;5.60;49.70
42227;DHT22;27892;52.378;13.122;2023-11-22T14:54:00;5.50;49.90
42227;DHT22;27892;52.378;13.122;2023-11-22T14:56:26;5.40;50.00
42227;DHT22;27892;52.378;13.122;2023-11-22T14:58:51;5.40;50.20
42227;DHT22;27892;52.378;13.122;2023-11-22T15:01:20;5.40;50.10
42227;DHT22;27892;52.378;13.122;2023-11-22T15:03:46;5.40;50.00
42227;DHT22;27892;52.378;13.122;2023-11-22T15:06:12;5.40;50.30
42227;DHT22;27892;52.378;13.122;2023-11-22T15:08:38;5.40;51.00
42227;DHT22;27892;52.378;13.122;2023-11-22T15:11:04;5.30;51.80
42227;DHT22;27892;52.378;13.122;2023-11-22T15:13:31;5.30;51.30
42227;DHT22;27892;52.378;13.122;2023-11-22T15:15:56;5.30;51.10
42227;DHT22;27892;52.378;13.122;2023-11-22T15:18:22;5.30;51.00
42227;DHT22;27892;52.378;13.122;2023-11-22T15:20:50;5.30;51.00
42227;DHT22;27892;52.378;13.122;2023-11-22T15:23:15;5.20;50.80
42227;DHT22;27892;52.378;13.122;2023-11-22T15:25:41;5.20;51.40
42227;DHT22;27892;52.378;13.122;2023-11-22T15:28:07;5.20;51.70
42227;DHT22;27892;52.378;13.122;2023-11-22T15:30:34;5.20;51.80
42227;DHT22;27892;52.378;13.122;2023-11-22T15:33:00;5.20;52.40